Tonic Sea — D5AZ8 — position and weather

sailwx.info

Track history (hours):
 
Tides and Currents Weather Stations Pressure Air Temp Water Temp Dewpoint Dewpoint Depression Visibility Wind Speed Wind Dir Waves Ship Positions

Tonic Sea

Last reported at 2016-May-27 15:16 UTC. Time now 2016-May-29 00:04 UTC.
Position N 35°34' E 017°17'.

Length 229 m; draft 12 m.

Type: Cargo ship. MMSI: 636015479.

Date/timePositionNaut miles runAvg speedWind from/ knotsBaromVisibWave heightAir tempDewpointWater temp
2016-May-27 15:16N 35°34' E 017°17'913.1
2016-May-27 14:33N 35°36' E 017°06'1313.1
2016-May-27 13:34N 35°39' E 016°50'1313.1
2016-May-27 12:33N 35°41' E 016°34'2 1.8
2016-May-27 11:33N 35°42' E 016°34'1313.2
2016-May-27 10:33N 35°46' E 016°18'1413.4
2016-May-27 09:33N 35°49' E 016°02'1313.3
2016-May-27 08:33N 35°52' E 015°46'1313.3
2016-May-27 07:33N 35°55' E 015°30'1313.3
2016-May-27 06:34N 35°59' E 015°14'1413.5
2016-May-27 05:34N 36°03' E 014°58'1313.4
2016-May-27 04:34N 36°07' E 014°43'1313.1
2016-May-27 03:34N 36°11' E 014°27'1313.1
2016-May-27 02:33N 36°16' E 014°12'1312.8
2016-May-27 01:34N 36°20' E 013°57'1313.0
2016-May-27 00:33N 36°25' E 013°42'1313.0
2016-May-26 23:33N 36°29' E 013°26'1413.7
2016-May-26 22:33N 36°34' E 013°10'1413.8
2016-May-26 21:33N 36°38' E 012°54'1313.5
2016-May-26 20:33N 36°43' E 012°39'1313.3
2016-May-26 19:33N 36°47' E 012°23'1313.0
2016-May-26 18:33N 36°53' E 012°08'1312.5
2016-May-26 17:33N 36°60' E 011°55'1312.7
2016-May-26 16:32N 37°06' E 011°41'1312.9
2016-May-26 15:33N 37°14' E 011°28'7912.6
2016-May-26 09:15N 37°34' E 009°52'1013.1
2016-May-26 08:31N 37°35' E 009°40'1212.9
2016-May-26 07:33N 37°36' E 009°25'2813.4
2016-May-26 05:26N 37°36' E 008°49'8812.6
2016-May-25 22:28N 37°29' E 006°59'5513.1
2016-May-25 18:17N 37°25' E 005°50'1013.4
2016-May-25 17:33N 37°24' E 005°38'1413.6
2016-May-25 16:33N 37°23' E 005°20'1313.2
2016-May-25 15:33N 37°22' E 005°04'1313.0
2016-May-25 14:33N 37°21' E 004°48'1313.5
2016-May-25 13:33N 37°20' E 004°31'1413.4
2016-May-25 12:32N 37°19' E 004°13'1413.9
2016-May-25 11:31N 37°17' E 003°56'1414.0
2016-May-25 10:33N 37°15' E 003°39'15313.6
2016-May-24 23:17N 36°47' E 000°31'1413.0
2016-May-24 22:11N 36°44' E 000°13'913.0
2016-May-24 21:27N 36°42' E 000°01'1212.6
2016-May-24 20:29N 36°40' W 000°13'1213.1
2016-May-24 19:33N 36°38' W 000°29'1513.2
2016-May-24 18:26N 36°35' W 000°47'21513.2
2016-May-24 02:11N 36°02' W 005°10'913.8
2016-May-24 01:33N 36°04' W 005°21'4 3.5
2016-May-24 00:31N 36°07' W 005°22'0 0.1
2016-May-23 23:31N 36°07' W 005°22'0 0.1
2016-May-23 22:28N 36°07' W 005°22'0 0.0
2016-May-23 21:31N 36°07' W 005°22'0 0.0
2016-May-23 20:31N 36°07' W 005°22'0 0.0
2016-May-23 19:31N 36°07' W 005°22'0 0.2
2016-May-23 18:31N 36°07' W 005°22'0 0.1
2016-May-23 17:31N 36°07' W 005°22'0 0.0
2016-May-23 16:31N 36°07' W 005°22'2 2.2
2016-May-23 15:33N 36°05' W 005°22'8 8.5
2016-May-23 14:34N 35°58' W 005°27'4212.5
2016-May-23 11:14N 35°50' W 006°18'914.0
2016-May-23 10:33N 35°44' W 006°27'1414.2
2016-May-23 09:33N 35°36' W 006°42'1414.1
2016-May-23 08:33N 35°28' W 006°56'1413.9
2016-May-23 07:31N 35°20' W 007°10'1414.1
2016-May-23 06:30N 35°12' W 007°25'31013.5
2016-May-22 07:32N 32°14' W 012°30'5413.5
2016-May-22 03:33N 31°43' W 013°22'1313.2
2016-May-22 02:33N 31°36' W 013°35'8413.3
2016-May-21 20:17N 30°48' W 014°55'1613.7
2016-May-21 19:05N 30°38' W 015°11'913.4
2016-May-21 18:24N 30°33' W 015°19'1113.2
2016-May-21 17:33N 30°27' W 015°30'1313.3
2016-May-21 16:33N 30°21' W 015°44'1413.3
2016-May-21 15:31N 30°14' W 015°58'  
Track history (hours):
 
Tides and Currents Weather Stations Pressure Air Temp Water Temp Dewpoint Dewpoint Depression Visibility Wind Speed Wind Dir Waves Ship Positions

Tonic Sea

Last reported at 2016-May-27 15:16 UTC. Time now 2016-May-29 00:04 UTC.
Position N 35°34' E 017°17'.

Length 229 m; draft 12 m.

Type: Cargo ship. MMSI: 636015479.

Date/timePositionNaut miles runAvg speedWind from/ knotsBaromVisibWave heightAir tempDewpointWater temp
2016-May-27 15:16N 35°34' E 017°17'913.1
2016-May-27 14:33N 35°36' E 017°06'1313.1
2016-May-27 13:34N 35°39' E 016°50'1313.1
2016-May-27 12:33N 35°41' E 016°34'2 1.8
2016-May-27 11:33N 35°42' E 016°34'1313.2
2016-May-27 10:33N 35°46' E 016°18'1413.4
2016-May-27 09:33N 35°49' E 016°02'1313.3
2016-May-27 08:33N 35°52' E 015°46'1313.3
2016-May-27 07:33N 35°55' E 015°30'1313.3
2016-May-27 06:34N 35°59' E 015°14'1413.5
2016-May-27 05:34N 36°03' E 014°58'1313.4
2016-May-27 04:34N 36°07' E 014°43'1313.1
2016-May-27 03:34N 36°11' E 014°27'1313.1
2016-May-27 02:33N 36°16' E 014°12'1312.8
2016-May-27 01:34N 36°20' E 013°57'1313.0
2016-May-27 00:33N 36°25' E 013°42'1313.0
2016-May-26 23:33N 36°29' E 013°26'1413.7
2016-May-26 22:33N 36°34' E 013°10'1413.8
2016-May-26 21:33N 36°38' E 012°54'1313.5
2016-May-26 20:33N 36°43' E 012°39'1313.3
2016-May-26 19:33N 36°47' E 012°23'1313.0
2016-May-26 18:33N 36°53' E 012°08'1312.5
2016-May-26 17:33N 36°60' E 011°55'1312.7
2016-May-26 16:32N 37°06' E 011°41'1312.9
2016-May-26 15:33N 37°14' E 011°28'7912.6
2016-May-26 09:15N 37°34' E 009°52'1013.1
2016-May-26 08:31N 37°35' E 009°40'1212.9
2016-May-26 07:33N 37°36' E 009°25'2813.4
2016-May-26 05:26N 37°36' E 008°49'8812.6
2016-May-25 22:28N 37°29' E 006°59'5513.1
2016-May-25 18:17N 37°25' E 005°50'1013.4
2016-May-25 17:33N 37°24' E 005°38'1413.6
2016-May-25 16:33N 37°23' E 005°20'1313.2
2016-May-25 15:33N 37°22' E 005°04'1313.0
2016-May-25 14:33N 37°21' E 004°48'1313.5
2016-May-25 13:33N 37°20' E 004°31'1413.4
2016-May-25 12:32N 37°19' E 004°13'1413.9
2016-May-25 11:31N 37°17' E 003°56'1414.0
2016-May-25 10:33N 37°15' E 003°39'15313.6
2016-May-24 23:17N 36°47' E 000°31'1413.0
2016-May-24 22:11N 36°44' E 000°13'913.0
2016-May-24 21:27N 36°42' E 000°01'1212.6
2016-May-24 20:29N 36°40' W 000°13'1213.1
2016-May-24 19:33N 36°38' W 000°29'1513.2
2016-May-24 18:26N 36°35' W 000°47'21513.2
2016-May-24 02:11N 36°02' W 005°10'913.8
2016-May-24 01:33N 36°04' W 005°21'4 3.5
2016-May-24 00:31N 36°07' W 005°22'0 0.1
2016-May-23 23:31N 36°07' W 005°22'0 0.1
2016-May-23 22:28N 36°07' W 005°22'0 0.0
2016-May-23 21:31N 36°07' W 005°22'0 0.0
2016-May-23 20:31N 36°07' W 005°22'0 0.0
2016-May-23 19:31N 36°07' W 005°22'0 0.2
2016-May-23 18:31N 36°07' W 005°22'0 0.1
2016-May-23 17:31N 36°07' W 005°22'0 0.0
2016-May-23 16:31N 36°07' W 005°22'2 2.2
2016-May-23 15:33N 36°05' W 005°22'8 8.5
2016-May-23 14:34N 35°58' W 005°27'4212.5
2016-May-23 11:14N 35°50' W 006°18'914.0
2016-May-23 10:33N 35°44' W 006°27'1414.2
2016-May-23 09:33N 35°36' W 006°42'1414.1
2016-May-23 08:33N 35°28' W 006°56'1413.9
2016-May-23 07:31N 35°20' W 007°10'1414.1
2016-May-23 06:30N 35°12' W 007°25'31013.5
2016-May-22 07:32N 32°14' W 012°30'5413.5
2016-May-22 03:33N 31°43' W 013°22'1313.2
2016-May-22 02:33N 31°36' W 013°35'8413.3
2016-May-21 20:17N 30°48' W 014°55'1613.7
2016-May-21 19:05N 30°38' W 015°11'913.4
2016-May-21 18:24N 30°33' W 015°19'1113.2
2016-May-21 17:33N 30°27' W 015°30'1313.3
2016-May-21 16:33N 30°21' W 015°44'1413.3
2016-May-21 15:31N 30°14' W 015°58'  

Dump ship's entire track history